NCAR-RAP Real-Time Weather Data

Output produced by METARs form (23 February 2020  02:37 UTC)
found at http://weather.rap.ucar.edu/surface/
 
KPHL 230154Z 24009KT 10SM CLR 06/M11 A3025 RMK AO2 SLP241 T00561111 $
KPHL 230054Z 23012KT 10SM CLR 07/M12 A3024 RMK AO2 SLP239 T00721117 $
KPHL 222354Z 23011KT 10SM CLR 07/M12 A3024 RMK AO2 SLP238 T00721122 10106 20072 53005 $
KPHL 222254Z 22010KT 10SM CLR 09/M12 A3022 RMK AO2 SLP231 T00891122 $
KPHL 222154Z 23010KT 10SM CLR 10/M13 A3021 RMK AO2 SLP230 T01001128 $
KPHL 222054Z 22013KT 10SM CLR 10/M13 A3022 RMK AO2 SLP233 T01001128 56020 $
KPHL 221954Z 24015KT 10SM CLR 10/M16 A3023 RMK AO2 SLP236 T01001156 $
KPHL 221854Z 24016KT 10SM CLR 09/M14 A3025 RMK AO2 SLP243 T00891144 $
KPHL 221754Z 24013KT 10SM CLR 08/M14 A3028 RMK AO2 SLP253 T00831144 10083 21022 58029 $
KPHL 221654Z 24013KT 10SM CLR 07/M15 A3032 RMK AO2 SLP265 T00721150 $
KPHL 221554Z 23012KT 10SM CLR 04/M13 A3034 RMK AO2 SLP274 T00441133 $
KPHL 221454Z 25010KT 10SM FEW250 03/M12 A3036 RMK AO2 SLP282 T00281122 50002 $
KPHL 221354Z 24012KT 10SM FEW250 01/M12 A3038 RMK AO2 SLP286 T00111117 $
KPHL 221254Z 24012KT 10SM CLR M01/M11 A3037 RMK AO2 SLP283 T10111111 $
KPHL 221154Z 24010KT 10SM CLR M02/M11 A3036 RMK AO2 SLP280 T10171106 11011 21044 53005 $
KPHL 221054Z 25008KT 10SM CLR M03/M10 A3036 RMK AO2 SLP279 T10331100 $
KPHL 220954Z 23004KT 10SM CLR M04/M10 A3033 RMK AO2 SLP272 T10391100 $
KPHL 220854Z 24006KT 10SM CLR M03/M10 A3034 RMK AO2 SLP275 T10281100 56014 $
KPHL 220754Z 22005KT 10SM CLR M02/M10 A3035 RMK AO2 SLP277 T10171100 $
KPHL 220654Z 24006KT 10SM CLR M02/M09 A3038 RMK AO2 SLP285 T10221094 $
KPHL 220554Z 24008KT 10SM CLR M01/M11 A3038 RMK AO2 SLP289 T10111106 10011 21017 56016 $
KPHL 220454Z 23008KT 10SM CLR M01/M12 A3040 RMK AO2 SLP293 T10111117 400221061 $
KPHL 220354Z 23008KT 10SM CLR M01/M13 A3041 RMK AO2 SLP299 T10061128 $
KPHL 220254Z 23007KT 10SM CLR 00/M12 A3043 RMK AO2 SLP305 T00001122 58007 $
KPHL 220154Z 26007KT 10SM CLR M01/M15 A3045 RMK AO2 SLP309 T10061150 $
KPHL 220054Z 27011KT 10SM CLR 01/M16 A3045 RMK AO2 SLP312 T00061156 $
KPHL 212354Z 27006KT 10SM CLR 02/M17 A3045 RMK AO2 SLP312 T00171172 10022 20000 55001 $
KPHL 212254Z 27007KT 10SM CLR 02/M18 A3045 RMK AO2 SLP312 T00171178 $
KPHL 212154Z 26006KT 10SM CLR 02/M18 A3045 RMK AO2 SLP312 T00221178 $
KPHL 212054Z 23004KT 10SM CLR 02/M17 A3046 RMK AO2 SLP314 T00171167 56015
KPHL 211954Z VRB04KT 10SM CLR 01/M17 A3047 RMK AO2 SLP317 T00111172
KPHL 211854Z 29010KT 10SM CLR 01/M16 A3049 RMK AO2 SLP323 T00061156
KPHL 211754Z 34004KT 10SM CLR 00/M16 A3050 RMK AO2 SLP329 T00001156 10006 21061 58014
KPHL 211654Z 00000KT 10SM FEW055 M01/M14 A3054 RMK AO2 SLP340 T10111144
KPHL 211554Z 03007KT 10SM FEW048 M02/M14 A3055 RMK AO2 SLP344 T10171144
KPHL 211454Z 35010G16KT 10SM FEW045 M03/M14 A3054 RMK AO2 SLP343 T10281139 51015
KPHL 211354Z 02013KT 10SM FEW036 M04/M14 A3054 RMK AO2 SLP340 T10441139
KPHL 211254Z 36013KT 10SM FEW032 M06/M14 A3053 RMK AO2 SLP337 T10561139 $
KPHL 211154Z 35010G18KT 10SM CLR M06/M14 A3050 RMK AO2 SLP328 T10611144 11028 21061 53011 $
KPHL 211054Z 35009KT 10SM CLR M06/M14 A3049 RMK AO2 SLP324 T10561144 $
KPHL 210954Z 36008KT 10SM CLR M06/M15 A3047 RMK AO2 SLP318 T10561150 $
KPHL 210854Z 01008KT 10SM CLR M05/M14 A3047 RMK AO2 SLP317 T10501144 50001 $
KPHL 210754Z 01011KT 10SM CLR M04/M14 A3047 RMK AO2 SLP319 T10441144 $
KPHL 210654Z 02012KT 10SM FEW210 M04/M13 A3048 RMK AO2 SLP320 T10391133 $
KPHL 210554Z 36016G21KT 10SM FEW210 M03/M14 A3047 RMK AO2 SLP317 T10281139 10011 21028 53007 $
KPHL 210454Z 36014KT 10SM BKN200 M02/M14 A3045 RMK AO2 SLP310 T10171139 400331017 $
KPHL 210354Z 36011G17KT 10SM BKN190 OVC220 M01/M11 A3044 RMK AO2 SLP309 T10061106 $
KPHL 210254Z 35008KT 10SM BKN190 00/M12 A3045 RMK AO2 SLP309 T00001117 51006 $